Time,TemperatureF,DewpointF,PressureIn,WindDirection,WindDirectionDegrees,WindSpeedMPH,WindSpeedGustMPH,Humidity,HourlyPrecipIn,Conditions,Clouds,dailyrainin,SoftwareType,DateUTC
2013-01-21 00:00:00,21.2,6.8,23.54,SE,130,0.0,0.0,53,0.00,,,0.00,WeatherTracker,2013-01-21 07:00:00,
2013-01-21 00:05:00,21.2,6.8,23.54,ESE,123,0.0,0.0,53,0.00,,,0.00,WeatherTracker,2013-01-21 07:05:00,
2013-01-21 00:10:00,21.0,7.0,23.54,WNW,284,0.0,0.0,54,0.00,,,0.00,WeatherTracker,2013-01-21 07:10:00,
2013-01-21 00:15:00,21.2,7.2,23.54,WNW,284,0.0,0.0,54,0.00,,,0.00,WeatherTracker,2013-01-21 07:15:00,
2013-01-21 00:25:00,21.2,6.8,23.54,WNW,284,0.0,0.0,53,0.00,,,0.00,WeatherTracker,2013-01-21 07:25:00,
2013-01-21 00:30:00,21.2,7.2,23.54,WNW,285,0.0,0.0,54,0.00,,,0.00,WeatherTracker,2013-01-21 07:30:00,
2013-01-21 00:35:00,21.0,6.6,23.54,WNW,284,0.0,0.0,53,0.00,,,0.00,WeatherTracker,2013-01-21 07:35:00,
2013-01-21 00:40:00,20.8,6.4,23.54,WNW,283,0.0,0.0,53,0.00,,,0.00,WeatherTracker,2013-01-21 07:40:00,
2013-01-21 00:45:00,20.7,6.3,23.51,West,281,0.0,0.0,53,0.00,,,0.00,WeatherTracker,2013-01-21 07:45:00,
2013-01-21 00:50:00,20.5,5.7,23.51,West,281,0.0,0.0,52,0.00,,,0.00,WeatherTracker,2013-01-21 07:50:00,
2013-01-21 01:00:00,20.1,5.3,23.54,West,281,0.0,0.0,52,0.00,,,0.00,WeatherTracker,2013-01-21 08:00:00,
2013-01-21 01:05:00,19.9,5.2,23.54,West,281,0.0,0.0,52,0.00,,,0.00,WeatherTracker,2013-01-21 08:05:00,
2013-01-21 01:10:00,19.9,5.2,23.54,West,281,0.0,0.0,52,0.00,,,0.00,WeatherTracker,2013-01-21 08:10:00,
2013-01-21 01:20:00,19.6,5.3,23.54,West,273,0.0,0.0,53,0.00,,,0.00,WeatherTracker,2013-01-21 08:20:00,
2013-01-21 01:30:00,19.8,5.4,23.54,SW,233,0.0,0.0,53,0.00,,,0.00,WeatherTracker,2013-01-21 08:30:00,
2013-01-21 01:35:00,19.4,5.1,23.54,SW,233,0.0,0.0,53,0.00,,,0.00,WeatherTracker,2013-01-21 08:35:00,
2013-01-21 01:45:00,19.6,5.3,23.54,SW,233,0.0,0.0,53,0.00,,,0.00,WeatherTracker,2013-01-21 08:45:00,
2013-01-21 01:50:00,19.4,5.1,23.54,SW,233,0.0,0.0,53,0.00,,,0.00,WeatherTracker,2013-01-21 08:50:00,
2013-01-21 01:55:00,19.2,4.9,23.54,SW,233,0.0,0.0,53,0.00,,,0.00,WeatherTracker,2013-01-21 08:55:00,
2013-01-21 02:05:00,18.9,4.2,23.54,SW,231,0.0,0.0,52,0.00,,,0.00,WeatherTracker,2013-01-21 09:05:00,
2013-01-21 02:10:00,18.7,4.0,23.54,SW,231,0.0,0.0,52,0.00,,,0.00,WeatherTracker,2013-01-21 09:10:00,
2013-01-21 02:20:00,18.5,3.8,23.54,SW,231,0.0,0.0,52,0.00,,,0.00,WeatherTracker,2013-01-21 09:20:00,
2013-01-21 02:30:00,18.5,4.3,23.54,SW,230,0.0,0.0,53,0.00,,,0.00,WeatherTracker,2013-01-21 09:30:00,
2013-01-21 02:35:00,18.5,4.3,23.54,SW,230,0.0,0.0,53,0.00,,,0.00,WeatherTracker,2013-01-21 09:35:00,
2013-01-21 02:40:00,18.5,4.3,23.54,SW,230,0.0,0.0,53,0.00,,,0.00,WeatherTracker,2013-01-21 09:40:00,
2013-01-21 02:50:00,18.3,4.1,23.54,SW,230,0.0,0.0,53,0.00,,,0.00,WeatherTracker,2013-01-21 09:50:00,
2013-01-21 02:55:00,18.3,4.1,23.54,SW,232,0.0,0.0,53,0.00,,,0.00,WeatherTracker,2013-01-21 09:55:00,
2013-01-21 03:05:00,18.1,3.9,23.54,SW,232,0.0,0.0,53,0.00,,,0.00,WeatherTracker,2013-01-21 10:05:00,
2013-01-21 03:15:00,18.0,3.8,23.54,SW,232,0.0,0.0,53,0.00,,,0.00,WeatherTracker,2013-01-21 10:15:00,
2013-01-21 03:20:00,17.8,3.6,23.54,SW,232,0.0,0.0,53,0.00,,,0.00,WeatherTracker,2013-01-21 10:20:00,
2013-01-21 03:30:00,17.2,3.1,23.51,SW,232,0.0,0.0,53,0.00,,,0.00,WeatherTracker,2013-01-21 10:30:00,
2013-01-21 03:40:00,17.4,3.7,23.51,SW,223,0.0,0.0,54,0.00,,,0.00,WeatherTracker,2013-01-21 10:40:00,
2013-01-21 03:45:00,17.4,3.2,23.51,SW,222,0.0,0.0,53,0.00,,,0.00,WeatherTracker,2013-01-21 10:45:00,
2013-01-21 03:50:00,17.1,2.9,23.51,SW,223,0.0,0.0,53,0.00,,,0.00,WeatherTracker,2013-01-21 10:50:00,
2013-01-21 04:00:00,16.9,3.1,23.51,WSW,247,0.0,0.0,54,0.00,,,0.00,WeatherTracker,2013-01-21 11:00:00,
2013-01-21 04:05:00,16.9,3.1,23.51,SW,230,0.0,0.0,54,0.00,,,0.00,WeatherTracker,2013-01-21 11:05:00,
2013-01-21 04:10:00,16.7,3.0,23.51,SW,230,0.0,0.0,54,0.00,,,0.00,WeatherTracker,2013-01-21 11:10:00,
2013-01-21 04:15:00,16.5,2.8,23.51,SW,230,0.0,0.0,54,0.00,,,0.00,WeatherTracker,2013-01-21 11:15:00,
2013-01-21 04:20:00,16.5,2.8,23.51,SW,230,0.0,0.0,54,0.00,,,0.00,WeatherTracker,2013-01-21 11:20:00,
2013-01-21 04:25:00,16.3,2.6,23.51,SW,230,0.0,0.0,54,0.00,,,0.00,WeatherTracker,2013-01-21 11:25:00,
2013-01-21 04:30:00,16.2,2.5,23.51,SW,230,0.0,0.0,54,0.00,,,0.00,WeatherTracker,2013-01-21 11:30:00,
2013-01-21 04:40:00,15.8,2.1,23.51,SSW,197,0.0,0.0,54,0.00,,,0.00,WeatherTracker,2013-01-21 11:40:00,
2013-01-21 04:50:00,15.8,2.1,23.51,SSW,197,0.0,0.0,54,0.00,,,0.00,WeatherTracker,2013-01-21 11:50:00,
2013-01-21 05:00:00,15.8,2.5,23.51,South,191,0.0,0.0,55,0.00,,,0.00,WeatherTracker,2013-01-21 12:00:00,
2013-01-21 05:05:00,15.4,2.2,23.51,South,191,0.0,0.0,55,0.00,,,0.00,WeatherTracker,2013-01-21 12:05:00,
2013-01-21 05:15:00,15.3,2.0,23.51,SW,236,0.0,0.0,55,0.00,,,0.00,WeatherTracker,2013-01-21 12:15:00,
2013-01-21 05:25:00,15.4,2.2,23.51,SW,236,0.0,0.0,55,0.00,,,0.00,WeatherTracker,2013-01-21 12:25:00,
2013-01-21 05:35:00,15.3,1.6,23.51,SW,236,0.0,0.0,54,0.00,,,0.00,WeatherTracker,2013-01-21 12:35:00,
2013-01-21 05:40:00,15.3,2.0,23.51,SW,236,0.0,0.0,55,0.00,,,0.00,WeatherTracker,2013-01-21 12:40:00,
2013-01-21 05:45:00,15.1,1.5,23.51,SW,236,0.0,0.0,54,0.00,,,0.00,WeatherTracker,2013-01-21 12:45:00,
2013-01-21 05:50:00,15.1,1.5,23.51,SW,236,0.0,0.0,54,0.00,,,0.00,WeatherTracker,2013-01-21 12:50:00,
2013-01-21 05:55:00,15.1,1.9,23.51,SW,228,0.0,0.0,55,0.00,,,0.00,WeatherTracker,2013-01-21 12:55:00,
2013-01-21 06:05:00,15.1,1.9,23.51,SW,226,0.0,0.0,55,0.00,,,0.00,WeatherTracker,2013-01-21 13:05:00,
2013-01-21 06:10:00,15.1,1.5,23.51,SW,224,0.0,0.0,54,0.00,,,0.00,WeatherTracker,2013-01-21 13:10:00,
2013-01-21 06:20:00,14.9,1.3,23.51,SW,224,0.0,0.0,54,0.00,,,0.00,WeatherTracker,2013-01-21 13:20:00,
2013-01-21 06:25:00,14.7,1.1,23.51,SW,224,0.0,0.0,54,0.00,,,0.00,WeatherTracker,2013-01-21 13:25:00,
2013-01-21 06:35:00,14.4,0.8,23.54,SW,224,0.0,0.0,54,0.00,,,0.00,WeatherTracker,2013-01-21 13:35:00,
2013-01-21 06:45:00,14.4,0.8,23.54,SSW,209,0.0,0.0,54,0.00,,,0.00,WeatherTracker,2013-01-21 13:45:00,
2013-01-21 06:55:00,14.4,0.8,23.54,SSW,212,0.0,0.0,54,0.00,,,0.00,WeatherTracker,2013-01-21 13:55:00,
2013-01-21 07:00:00,14.2,0.6,23.54,SSW,202,0.0,0.0,54,0.00,,,0.00,WeatherTracker,2013-01-21 14:00:00,
2013-01-21 07:10:00,14.5,1.4,23.54,WSW,239,0.0,0.0,55,0.00,,,0.00,WeatherTracker,2013-01-21 14:10:00,
2013-01-21 07:15:00,14.5,1.4,23.54,WSW,239,0.0,0.0,55,0.00,,,0.00,WeatherTracker,2013-01-21 14:15:00,
2013-01-21 07:20:00,14.4,1.2,23.54,SW,234,0.0,0.0,55,0.00,,,0.00,WeatherTracker,2013-01-21 14:20:00,
2013-01-21 07:25:00,14.4,1.2,23.54,SSW,213,0.0,0.0,55,0.00,,,0.00,WeatherTracker,2013-01-21 14:25:00,
2013-01-21 07:35:00,14.0,0.8,23.54,WSW,239,0.0,0.0,55,0.00,,,0.00,WeatherTracker,2013-01-21 14:35:00,
2013-01-21 07:45:00,14.0,0.8,23.54,WSW,239,0.0,0.0,55,0.00,,,0.00,WeatherTracker,2013-01-21 14:45:00,
2013-01-21 07:50:00,14.4,1.2,23.54,WSW,239,0.0,0.0,55,0.00,,,0.00,WeatherTracker,2013-01-21 14:50:00,
2013-01-21 07:55:00,14.7,1.5,23.54,South,188,0.0,0.0,55,0.00,,,0.00,WeatherTracker,2013-01-21 14:55:00,
2013-01-21 08:00:00,14.7,1.5,23.54,South,189,0.0,0.0,55,0.00,,,0.00,WeatherTracker,2013-01-21 15:00:00,
2013-01-21 08:05:00,14.5,1.0,23.54,SSW,211,0.0,0.0,54,0.00,,,0.00,WeatherTracker,2013-01-21 15:05:00,
2013-01-21 08:10:00,14.5,1.4,23.54,SW,227,0.0,0.0,55,0.00,,,0.00,WeatherTracker,2013-01-21 15:10:00,
2013-01-21 08:15:00,14.9,1.7,23.56,SW,227,0.0,0.0,55,0.00,,,0.00,WeatherTracker,2013-01-21 15:15:00,
2013-01-21 08:20:00,15.4,2.6,23.56,SW,227,0.0,0.0,56,0.00,,,0.00,WeatherTracker,2013-01-21 15:20:00,
2013-01-21 08:30:00,17.1,4.5,23.56,SSE,160,0.0,0.0,57,0.00,,,0.00,WeatherTracker,2013-01-21 15:30:00,
2013-01-21 08:40:00,19.0,5.2,23.56,NW,312,0.0,0.0,54,0.00,,,0.00,WeatherTracker,2013-01-21 15:40:00,
2013-01-21 08:45:00,20.7,5.4,23.56,NW,312,0.0,0.0,51,0.00,,,0.00,WeatherTracker,2013-01-21 15:45:00,
2013-01-21 08:50:00,21.6,5.8,23.56,NW,312,0.0,0.0,50,0.00,,,0.00,WeatherTracker,2013-01-21 15:50:00,
2013-01-21 08:55:00,22.1,5.4,23.56,NW,312,0.0,0.0,48,0.00,,,0.00,WeatherTracker,2013-01-21 15:55:00,
2013-01-21 09:00:00,22.5,5.3,23.56,NW,312,0.0,0.0,47,0.00,,,0.00,WeatherTracker,2013-01-21 16:00:00,
2013-01-21 09:10:00,23.5,5.8,23.56,NW,312,0.0,0.0,46,0.00,,,0.00,WeatherTracker,2013-01-21 16:10:00,
2013-01-21 09:20:00,24.4,6.2,23.56,NW,312,0.0,0.0,45,0.00,,,0.00,WeatherTracker,2013-01-21 16:20:00,
2013-01-21 09:30:00,25.7,5.8,23.56,NW,318,0.0,0.0,42,0.00,,,0.00,WeatherTracker,2013-01-21 16:30:00,
2013-01-21 09:40:00,27.1,6.6,23.56,NW,318,0.0,0.0,41,0.00,,,0.00,WeatherTracker,2013-01-21 16:40:00,
2013-01-21 09:45:00,27.9,7.2,23.56,WSW,250,0.0,0.0,41,0.00,,,0.00,WeatherTracker,2013-01-21 16:45:00,
2013-01-21 09:55:00,31.3,4.2,23.56,East,95,0.0,0.0,31,0.00,,,0.00,WeatherTracker,2013-01-21 16:55:00,
2013-01-21 10:00:00,32.9,4.9,23.59,ESE,109,0.0,0.0,30,0.00,,,0.00,WeatherTracker,2013-01-21 17:00:00,
2013-01-21 10:05:00,34.3,-0.5,23.59,NE,42,0.0,0.0,22,0.00,,,0.00,WeatherTracker,2013-01-21 17:05:00,
2013-01-21 10:15:00,35.4,-1.6,23.59,SE,140,0.0,0.0,20,0.00,,,0.00,WeatherTracker,2013-01-21 17:15:00,
2013-01-21 10:25:00,36.7,-1.6,23.59,NE,56,0.0,0.0,19,0.00,,,0.00,WeatherTracker,2013-01-21 17:25:00,
2013-01-21 10:30:00,37.0,-1.3,23.56,NNW,332,0.0,0.0,19,0.00,,,0.00,WeatherTracker,2013-01-21 17:30:00,
2013-01-21 10:40:00,37.6,-4.5,23.56,SE,125,0.0,0.0,16,0.00,,,0.00,WeatherTracker,2013-01-21 17:40:00,
2013-01-21 10:50:00,38.3,-3.9,23.59,South,181,0.0,0.0,16,0.00,,,0.00,WeatherTracker,2013-01-21 17:50:00,
2013-01-21 11:00:00,38.8,-3.5,23.59,South,173,0.0,5.0,16,0.00,,,0.00,WeatherTracker,2013-01-21 18:00:00,
2013-01-21 11:05:00,39.4,-3.0,23.59,SE,134,0.0,0.0,16,0.00,,,0.00,WeatherTracker,2013-01-21 18:05:00,
2013-01-21 11:15:00,39.9,-2.6,23.59,NE,42,0.0,0.0,16,0.00,,,0.00,WeatherTracker,2013-01-21 18:15:00,
2013-01-21 11:20:00,40.1,-2.4,23.59,SSE,150,0.0,0.0,16,0.00,,,0.00,WeatherTracker,2013-01-21 18:20:00,
2013-01-21 11:30:00,40.5,-2.1,23.59,ENE,64,0.0,0.0,16,0.00,,,0.00,WeatherTracker,2013-01-21 18:30:00,
2013-01-21 11:35:00,41.0,0.8,23.59,SSE,157,0.0,5.0,18,0.00,,,0.00,WeatherTracker,2013-01-21 18:35:00,
2013-01-21 11:40:00,41.5,-1.3,23.59,ENE,64,0.0,0.0,16,0.00,,,0.00,WeatherTracker,2013-01-21 18:40:00,
2013-01-21 11:50:00,41.9,-1.0,23.59,NE,47,0.0,0.0,16,0.00,,,0.00,WeatherTracker,2013-01-21 18:50:00,
2013-01-21 12:00:00,42.3,1.8,23.56,ENE,69,0.0,0.0,18,0.00,,,0.00,WeatherTracker,2013-01-21 19:00:00,
2013-01-21 12:10:00,42.4,2.0,23.56,East,97,0.0,0.0,18,0.00,,,0.00,WeatherTracker,2013-01-21 19:10:00,
2013-01-21 12:15:00,42.6,-0.4,23.56,ESE,119,0.0,0.0,16,0.00,,,0.00,WeatherTracker,2013-01-21 19:15:00,
2013-01-21 12:25:00,43.0,2.4,23.56,SSE,150,0.0,0.0,18,0.00,,,0.00,WeatherTracker,2013-01-21 19:25:00,
2013-01-21 12:30:00,42.8,-1.6,23.56,East,89,0.0,0.0,15,0.00,,,0.00,WeatherTracker,2013-01-21 19:30:00,
2013-01-21 12:35:00,43.0,2.4,23.56,ENE,73,0.0,3.0,18,0.00,,,0.00,WeatherTracker,2013-01-21 19:35:00,
2013-01-21 12:46:00,43.3,-1.2,23.56,NE,56,0.0,0.0,15,0.00,,,0.00,WeatherTracker,2013-01-21 19:46:00,
2013-01-21 12:55:00,43.7,-0.9,23.56,SE,126,2.0,3.0,15,0.00,,,0.00,WeatherTracker,2013-01-21 19:55:00,
2013-01-21 13:00:00,43.7,-0.9,23.56,North,11,0.0,0.0,15,0.00,,,0.00,WeatherTracker,2013-01-21 20:00:00,
2013-01-21 13:10:00,44.1,3.3,23.56,West,265,0.0,0.0,18,0.00,,,0.00,WeatherTracker,2013-01-21 20:10:00,
2013-01-21 13:15:00,44.2,-0.4,23.56,NNE,21,4.0,0.0,15,0.00,,,0.00,WeatherTracker,2013-01-21 20:15:00,
2013-01-21 13:21:00,44.6,-0.2,23.56,North,353,0.0,0.0,15,0.00,,,0.00,WeatherTracker,2013-01-21 20:21:00,
2013-01-21 13:30:00,44.8,2.7,23.54,SE,134,2.0,0.0,17,0.00,,,0.00,WeatherTracker,2013-01-21 20:30:00,
2013-01-21 13:35:00,45.0,0.1,23.54,ENE,78,3.0,3.0,15,0.00,,,0.00,WeatherTracker,2013-01-21 20:35:00,
2013-01-21 13:45:00,45.0,0.1,23.54,SSE,164,0.0,3.0,15,0.00,,,0.00,WeatherTracker,2013-01-21 20:45:00,
2013-01-21 13:55:00,45.0,0.1,23.54,North,357,0.0,0.0,15,0.00,,,0.00,WeatherTracker,2013-01-21 20:55:00,
2013-01-21 14:05:00,44.8,2.7,23.54,SSE,165,0.0,6.0,17,0.00,,,0.00,WeatherTracker,2013-01-21 21:05:00,
2013-01-21 14:10:00,44.8,0.0,23.54,NNW,342,0.0,0.0,15,0.00,,,0.00,WeatherTracker,2013-01-21 21:10:00,
2013-01-21 14:20:00,44.8,2.7,23.54,NNW,336,0.0,0.0,17,0.00,,,0.00,WeatherTracker,2013-01-21 21:20:00,
2013-01-21 14:30:00,44.6,-0.2,23.54,ESE,105,0.0,0.0,15,0.00,,,0.00,WeatherTracker,2013-01-21 21:30:00,
2013-01-21 14:35:00,44.6,-0.2,23.54,WSW,253,0.0,0.0,15,0.00,,,0.00,WeatherTracker,2013-01-21 21:35:00,
2013-01-21 14:45:00,44.8,2.7,23.54,ENE,58,0.0,0.0,17,0.00,,,0.00,WeatherTracker,2013-01-21 21:45:00,
2013-01-21 14:55:00,44.8,0.0,23.54,NW,322,0.0,5.0,15,0.00,,,0.00,WeatherTracker,2013-01-21 21:55:00,
2013-01-21 15:00:00,44.6,-0.2,23.54,NE,42,0.0,0.0,15,0.00,,,0.00,WeatherTracker,2013-01-21 22:00:00,
2013-01-21 15:05:00,44.6,2.5,23.54,SE,126,0.0,4.0,17,0.00,,,0.00,WeatherTracker,2013-01-21 22:05:00,
2013-01-21 15:10:00,44.6,-0.2,23.54,NNE,14,0.0,0.0,15,0.00,,,0.00,WeatherTracker,2013-01-21 22:10:00,
2013-01-21 15:20:00,44.6,-0.2,23.54,West,274,0.0,0.0,15,0.00,,,0.00,WeatherTracker,2013-01-21 22:20:00,
2013-01-21 15:25:00,44.4,-0.3,23.54,WSW,245,2.0,0.0,15,0.00,,,0.00,WeatherTracker,2013-01-21 22:25:00,
2013-01-21 15:30:00,44.4,-0.3,23.54,NW,310,0.0,3.0,15,0.00,,,0.00,WeatherTracker,2013-01-21 22:30:00,
2013-01-21 15:40:00,43.9,-0.7,23.54,East,85,2.0,4.0,15,0.00,,,0.00,WeatherTracker,2013-01-21 22:40:00,
2013-01-21 15:50:00,43.3,2.7,23.54,NE,55,0.0,0.0,18,0.00,,,0.00,WeatherTracker,2013-01-21 22:50:00,
2013-01-21 15:55:00,43.2,-1.3,23.54,South,179,0.0,0.0,15,0.00,,,0.00,WeatherTracker,2013-01-21 22:55:00,
2013-01-21 16:05:00,42.6,-0.4,23.54,North,353,2.0,0.0,16,0.00,,,0.00,WeatherTracker,2013-01-21 23:05:00,
2013-01-21 16:10:00,42.6,-0.4,23.54,North,9,0.0,0.0,16,0.00,,,0.00,WeatherTracker,2013-01-21 23:10:00,
2013-01-21 16:15:00,42.3,-0.7,23.54,North,9,0.0,0.0,16,0.00,,,0.00,WeatherTracker,2013-01-21 23:15:00,
2013-01-21 16:20:00,42.3,1.8,23.54,ENE,62,0.0,0.0,18,0.00,,,0.00,WeatherTracker,2013-01-21 23:20:00,
2013-01-21 16:30:00,41.7,1.4,23.54,West,278,0.0,0.0,18,0.00,,,0.00,WeatherTracker,2013-01-21 23:30:00,
2013-01-21 16:40:00,41.4,-1.4,23.54,North,4,0.0,0.0,16,0.00,,,0.00,WeatherTracker,2013-01-21 23:40:00,
2013-01-21 16:50:00,40.6,0.5,23.54,NE,56,0.0,0.0,18,0.00,,,0.00,WeatherTracker,2013-01-21 23:50:00,
2013-01-21 16:55:00,40.5,0.3,23.54,NNE,12,0.0,0.0,18,0.00,,,0.00,WeatherTracker,2013-01-21 23:55:00,
2013-01-21 17:05:00,39.6,-0.4,23.54,NW,304,0.0,0.0,18,0.00,,,0.00,WeatherTracker,2013-01-22 00:05:00,
2013-01-21 17:10:00,39.2,-0.7,23.54,NW,304,0.0,0.0,18,0.00,,,0.00,WeatherTracker,2013-01-22 00:10:00,
2013-01-21 17:15:00,38.8,0.1,23.54,NW,304,0.0,0.0,19,0.00,,,0.00,WeatherTracker,2013-01-22 00:15:00,
2013-01-21 17:20:00,38.3,1.8,23.54,West,279,0.0,0.0,21,0.00,,,0.00,WeatherTracker,2013-01-22 00:20:00,
2013-01-21 17:26:00,38.1,1.7,23.54,West,279,0.0,0.0,21,0.00,,,0.00,WeatherTracker,2013-01-22 00:26:00,
2013-01-21 17:35:00,37.2,3.8,23.54,West,279,0.0,0.0,24,0.00,,,0.00,WeatherTracker,2013-01-22 00:35:00,
2013-01-21 17:40:00,36.9,6.0,23.54,WNW,296,0.0,0.0,27,0.00,,,0.00,WeatherTracker,2013-01-22 00:40:00,
2013-01-21 17:50:00,36.3,5.6,23.54,WNW,298,0.0,0.0,27,0.00,,,0.00,WeatherTracker,2013-01-22 00:50:00,
2013-01-21 17:55:00,36.1,5.4,23.54,WNW,298,0.0,0.0,27,0.00,,,0.00,WeatherTracker,2013-01-22 00:55:00,
2013-01-21 18:01:00,35.8,5.1,23.54,WNW,298,0.0,0.0,27,0.00,,,0.00,WeatherTracker,2013-01-22 01:01:00,
2013-01-21 18:10:00,35.1,6.8,23.54,WNW,298,0.0,0.0,30,0.00,,,0.00,WeatherTracker,2013-01-22 01:10:00,
2013-01-21 18:15:00,34.7,6.5,23.56,WNW,298,0.0,0.0,30,0.00,,,0.00,WeatherTracker,2013-01-22 01:15:00,
2013-01-21 18:25:00,34.0,6.6,23.56,WNW,298,0.0,0.0,31,0.00,,,0.00,WeatherTracker,2013-01-22 01:25:00,
2013-01-21 18:30:00,33.8,6.4,23.56,WNW,298,0.0,0.0,31,0.00,,,0.00,WeatherTracker,2013-01-22 01:30:00,
2013-01-21 18:40:00,33.1,6.5,23.56,WNW,298,0.0,0.0,32,0.00,,,0.00,WeatherTracker,2013-01-22 01:40:00,
2013-01-21 18:45:00,32.7,6.2,23.56,WNW,298,0.0,0.0,32,0.00,,,0.00,WeatherTracker,2013-01-22 01:45:00,
2013-01-21 18:50:00,32.5,6.7,23.56,WNW,298,0.0,0.0,33,0.00,,,0.00,WeatherTracker,2013-01-22 01:50:00,
2013-01-21 18:55:00,32.2,6.3,23.56,WNW,298,0.0,0.0,33,0.00,,,0.00,WeatherTracker,2013-01-22 01:55:00,
2013-01-21 19:00:00,31.8,6.0,23.56,WNW,298,0.0,0.0,33,0.00,,,0.00,WeatherTracker,2013-01-22 02:00:00,
2013-01-21 19:05:00,31.5,5.7,23.56,WNW,298,0.0,0.0,33,0.00,,,0.00,WeatherTracker,2013-01-22 02:05:00,
2013-01-21 19:15:00,30.9,6.5,23.56,WNW,298,0.0,0.0,35,0.00,,,0.00,WeatherTracker,2013-01-22 02:15:00,
2013-01-21 19:20:00,30.6,5.6,23.56,WNW,298,0.0,0.0,34,0.00,,,0.00,WeatherTracker,2013-01-22 02:20:00,
2013-01-21 19:30:00,30.2,7.7,23.56,SW,229,0.0,0.0,38,0.00,,,0.00,WeatherTracker,2013-01-22 02:30:00,
2013-01-21 19:35:00,29.7,8.3,23.56,SW,229,0.0,0.0,40,0.00,,,0.00,WeatherTracker,2013-01-22 02:35:00,
2013-01-21 19:45:00,28.9,7.1,23.56,SW,229,0.0,0.0,39,0.00,,,0.00,WeatherTracker,2013-01-22 02:45:00,
2013-01-21 19:50:00,28.8,7.5,23.56,SW,229,0.0,0.0,40,0.00,,,0.00,WeatherTracker,2013-01-22 02:50:00,
2013-01-21 20:00:00,28.4,7.7,23.56,West,266,0.0,0.0,41,0.00,,,0.00,WeatherTracker,2013-01-22 03:00:00,
2013-01-21 20:05:00,28.4,7.2,23.56,West,266,0.0,0.0,40,0.00,,,0.00,WeatherTracker,2013-01-22 03:05:00,
2013-01-21 20:10:00,28.2,7.6,23.56,West,266,0.0,0.0,41,0.00,,,0.00,WeatherTracker,2013-01-22 03:10:00,
2013-01-21 20:15:00,28.0,7.4,23.56,West,270,0.0,0.0,41,0.00,,,0.00,WeatherTracker,2013-01-22 03:15:00,
2013-01-21 20:20:00,27.9,6.2,23.56,West,270,0.0,0.0,39,0.00,,,0.00,WeatherTracker,2013-01-22 03:20:00,
2013-01-21 20:25:00,27.9,5.6,23.56,West,270,0.0,0.0,38,0.00,,,0.00,WeatherTracker,2013-01-22 03:25:00,
2013-01-21 20:35:00,27.1,7.1,23.56,West,270,0.0,0.0,42,0.00,,,0.00,WeatherTracker,2013-01-22 03:35:00,
2013-01-21 20:45:00,27.0,7.0,23.56,West,270,0.0,0.0,42,0.00,,,0.00,WeatherTracker,2013-01-22 03:45:00,
2013-01-21 20:50:00,27.0,7.0,23.56,West,270,0.0,0.0,42,0.00,,,0.00,WeatherTracker,2013-01-22 03:50:00,
2013-01-21 20:55:00,26.6,6.6,23.56,West,270,0.0,0.0,42,0.00,,,0.00,WeatherTracker,2013-01-22 03:55:00,
2013-01-21 21:00:00,26.2,6.3,23.56,West,270,0.0,0.0,42,0.00,,,0.00,WeatherTracker,2013-01-22 04:00:00,
2013-01-21 21:10:00,25.7,6.3,23.56,West,270,0.0,0.0,43,0.00,,,0.00,WeatherTracker,2013-01-22 04:10:00,
2013-01-21 21:20:00,25.7,6.3,23.56,West,270,0.0,0.0,43,0.00,,,0.00,WeatherTracker,2013-01-22 04:20:00,
2013-01-21 21:31:00,25.2,6.3,23.56,West,270,0.0,0.0,44,0.00,,,0.00,WeatherTracker,2013-01-22 04:31:00,
2013-01-21 21:40:00,25.0,6.2,23.56,West,270,0.0,0.0,44,0.00,,,0.00,WeatherTracker,2013-01-22 04:40:00,
2013-01-21 21:45:00,24.6,6.3,23.56,West,270,0.0,0.0,45,0.00,,,0.00,WeatherTracker,2013-01-22 04:45:00,
2013-01-21 21:50:00,24.4,6.2,23.56,West,270,0.0,0.0,45,0.00,,,0.00,WeatherTracker,2013-01-22 04:50:00,
2013-01-21 21:55:00,24.4,6.2,23.56,SSW,206,0.0,0.0,45,0.00,,,0.00,WeatherTracker,2013-01-22 04:55:00,
2013-01-21 22:00:00,24.4,6.2,23.56,SSW,206,0.0,0.0,45,0.00,,,0.00,WeatherTracker,2013-01-22 05:00:00,
2013-01-21 22:06:00,24.3,6.0,23.56,SSW,206,0.0,0.0,45,0.00,,,0.00,WeatherTracker,2013-01-22 05:06:00,
2013-01-21 22:10:00,24.1,5.8,23.56,SSW,206,0.0,0.0,45,0.00,,,0.00,WeatherTracker,2013-01-22 05:10:00,
2013-01-21 22:15:00,23.9,5.7,23.56,SSW,206,0.0,0.0,45,0.00,,,0.00,WeatherTracker,2013-01-22 05:15:00,
2013-01-21 22:20:00,23.5,5.4,23.56,SSW,206,0.0,0.0,45,0.00,,,0.00,WeatherTracker,2013-01-22 05:20:00,
2013-01-21 22:25:00,23.5,5.4,23.56,SSW,206,0.0,0.0,45,0.00,,,0.00,WeatherTracker,2013-01-22 05:25:00,
2013-01-21 22:30:00,23.2,5.0,23.56,SSW,206,0.0,0.0,45,0.00,,,0.00,WeatherTracker,2013-01-22 05:30:00,
2013-01-21 22:35:00,23.2,5.0,23.56,SSW,206,0.0,0.0,45,0.00,,,0.00,WeatherTracker,2013-01-22 05:35:00,
2013-01-21 22:40:00,23.2,5.5,23.56,SSW,206,0.0,0.0,46,0.00,,,0.00,WeatherTracker,2013-01-22 05:40:00,
2013-01-21 22:50:00,22.6,5.0,23.56,SSW,206,0.0,0.0,46,0.00,,,0.00,WeatherTracker,2013-01-22 05:50:00,
2013-01-21 23:00:00,21.9,4.3,23.56,SSW,206,0.0,0.0,46,0.00,,,0.00,WeatherTracker,2013-01-22 06:00:00,
2013-01-21 23:05:00,22.1,4.5,23.56,SSW,206,0.0,0.0,46,0.00,,,0.00,WeatherTracker,2013-01-22 06:05:00,
2013-01-21 23:15:00,22.3,4.7,23.56,South,191,0.0,0.0,46,0.00,,,0.00,WeatherTracker,2013-01-22 06:15:00,
2013-01-21 23:20:00,22.1,4.5,23.56,South,191,0.0,0.0,46,0.00,,,0.00,WeatherTracker,2013-01-22 06:20:00,
2013-01-21 23:26:00,21.9,4.3,23.56,South,191,0.0,0.0,46,0.00,,,0.00,WeatherTracker,2013-01-22 06:26:00,
2013-01-21 23:35:00,21.6,4.5,23.56,South,191,0.0,0.0,47,0.00,,,0.00,WeatherTracker,2013-01-22 06:35:00,
2013-01-21 23:40:00,21.4,4.8,23.56,West,265,0.0,0.0,48,0.00,,,0.00,WeatherTracker,2013-01-22 06:40:00,
2013-01-21 23:50:00,21.7,6.0,23.56,West,265,0.0,0.0,50,0.00,,,0.00,WeatherTracker,2013-01-22 06:50:00,
2013-01-21 23:55:00,21.9,6.6,23.56,West,265,0.0,0.0,51,0.00,,,0.00,WeatherTracker,2013-01-22 06:55:00,